sensor_id;sensor_type;location;lat;lon;timestamp;temperature;humidity
69393;SHT31;56582;44.624;20.378;2023-10-13T00:02:02;19.53;75.52
69393;SHT31;56582;44.624;20.378;2023-10-13T00:04:31;19.62;75.24
69393;SHT31;56582;44.624;20.378;2023-10-13T00:07:00;19.69;74.69
69393;SHT31;56582;44.624;20.378;2023-10-13T00:09:28;19.70;74.65
69393;SHT31;56582;44.624;20.378;2023-10-13T00:12:03;19.76;74.25
69393;SHT31;56582;44.624;20.378;2023-10-13T00:14:30;19.69;73.63
69393;SHT31;56582;44.624;20.378;2023-10-13T00:17:03;19.73;73.83
69393;SHT31;56582;44.624;20.378;2023-10-13T00:19:30;19.76;74.15
69393;SHT31;56582;44.624;20.378;2023-10-13T00:22:25;19.77;73.73
69393;SHT31;56582;44.624;20.378;2023-10-13T00:24:53;19.77;73.70
69393;SHT31;56582;44.624;20.378;2023-10-13T00:27:20;19.74;74.29
69393;SHT31;56582;44.624;20.378;2023-10-13T00:29:58;19.74;73.93
69393;SHT31;56582;44.624;20.378;2023-10-13T00:32:43;19.72;73.87
69393;SHT31;56582;44.624;20.378;2023-10-13T00:35:10;19.76;73.85
69393;SHT31;56582;44.624;20.378;2023-10-13T00:37:57;19.76;73.69
69393;SHT31;56582;44.624;20.378;2023-10-13T00:40:28;19.73;73.12
69393;SHT31;56582;44.624;20.378;2023-10-13T00:42:57;19.76;72.82
69393;SHT31;56582;44.624;20.378;2023-10-13T00:45:42;19.66;73.41
69393;SHT31;56582;44.624;20.378;2023-10-13T00:48:09;19.67;73.32
69393;SHT31;56582;44.624;20.378;2023-10-13T00:50:39;19.66;73.04
69393;SHT31;56582;44.624;20.378;2023-10-13T00:53:06;19.69;73.48
69393;SHT31;56582;44.624;20.378;2023-10-13T00:55:33;19.65;73.90
69393;SHT31;56582;44.624;20.378;2023-10-13T00:58:02;19.63;73.54
69393;SHT31;56582;44.624;20.378;2023-10-13T01:00:32;19.63;73.32
69393;SHT31;56582;44.624;20.378;2023-10-13T01:02:58;19.62;73.74
69393;SHT31;56582;44.624;20.378;2023-10-13T01:05:33;19.63;74.23
69393;SHT31;56582;44.624;20.378;2023-10-13T01:08:02;19.59;74.16
69393;SHT31;56582;44.624;20.378;2023-10-13T01:10:28;19.59;73.47
69393;SHT31;56582;44.624;20.378;2023-10-13T01:12:58;19.58;73.30
69393;SHT31;56582;44.624;20.378;2023-10-13T01:15:27;19.46;71.98
69393;SHT31;56582;44.624;20.378;2023-10-13T01:18:11;19.39;72.28
69393;SHT31;56582;44.624;20.378;2023-10-13T01:20:41;19.26;72.10
69393;SHT31;56582;44.624;20.378;2023-10-13T01:23:17;19.22;73.07
69393;SHT31;56582;44.624;20.378;2023-10-13T01:25:49;19.22;73.27
69393;SHT31;56582;44.624;20.378;2023-10-13T01:28:15;19.31;73.13
69393;SHT31;56582;44.624;20.378;2023-10-13T01:30:43;19.32;73.16
69393;SHT31;56582;44.624;20.378;2023-10-13T01:33:17;19.36;72.86
69393;SHT31;56582;44.624;20.378;2023-10-13T01:35:42;19.41;72.43
69393;SHT31;56582;44.624;20.378;2023-10-13T01:38:13;19.42;72.63
69393;SHT31;56582;44.624;20.378;2023-10-13T01:40:39;19.44;72.47
69393;SHT31;56582;44.624;20.378;2023-10-13T01:43:04;19.44;73.82
69393;SHT31;56582;44.624;20.378;2023-10-13T01:45:36;19.31;72.67
69393;SHT31;56582;44.624;20.378;2023-10-13T01:48:04;19.12;73.70
69393;SHT31;56582;44.624;20.378;2023-10-13T01:50:30;19.22;73.96
69393;SHT31;56582;44.624;20.378;2023-10-13T01:52:56;19.19;74.75
69393;SHT31;56582;44.624;20.378;2023-10-13T01:55:43;19.16;74.39
69393;SHT31;56582;44.624;20.378;2023-10-13T01:58:15;19.08;74.56
69393;SHT31;56582;44.624;20.378;2023-10-13T02:00:45;19.07;74.64
69393;SHT31;56582;44.624;20.378;2023-10-13T02:03:13;19.10;74.44
69393;SHT31;56582;44.624;20.378;2023-10-13T02:05:46;19.15;73.54
69393;SHT31;56582;44.624;20.378;2023-10-13T02:08:20;19.12;73.91
69393;SHT31;56582;44.624;20.378;2023-10-13T02:10:53;19.22;73.20
69393;SHT31;56582;44.624;20.378;2023-10-13T02:13:20;19.25;73.50
69393;SHT31;56582;44.624;20.378;2023-10-13T02:15:48;19.25;74.08
69393;SHT31;56582;44.624;20.378;2023-10-13T02:18:16;19.22;74.42
69393;SHT31;56582;44.624;20.378;2023-10-13T02:21:03;19.19;74.49
69393;SHT31;56582;44.624;20.378;2023-10-13T02:23:38;19.18;74.42
69393;SHT31;56582;44.624;20.378;2023-10-13T02:26:14;19.19;74.16
69393;SHT31;56582;44.624;20.378;2023-10-13T02:29:01;19.12;74.15
69393;SHT31;56582;44.624;20.378;2023-10-13T02:31:35;19.14;74.51
69393;SHT31;56582;44.624;20.378;2023-10-13T02:34:00;19.16;74.21
69393;SHT31;56582;44.624;20.378;2023-10-13T02:36:31;19.22;73.60
69393;SHT31;56582;44.624;20.378;2023-10-13T02:39:05;19.29;73.70
69393;SHT31;56582;44.624;20.378;2023-10-13T02:41:33;19.35;73.74
69393;SHT31;56582;44.624;20.378;2023-10-13T02:44:03;19.35;73.75
69393;SHT31;56582;44.624;20.378;2023-10-13T02:46:32;19.48;73.83
69393;SHT31;56582;44.624;20.378;2023-10-13T02:49:01;19.51;74.12
69393;SHT31;56582;44.624;20.378;2023-10-13T02:51:35;19.42;74.21
69393;SHT31;56582;44.624;20.378;2023-10-13T02:54:04;19.36;73.27
69393;SHT31;56582;44.624;20.378;2023-10-13T02:56:40;19.25;73.68
69393;SHT31;56582;44.624;20.378;2023-10-13T02:59:23;19.24;73.63
69393;SHT31;56582;44.624;20.378;2023-10-13T03:02:01;19.25;73.65
69393;SHT31;56582;44.624;20.378;2023-10-13T03:04:32;19.21;74.92
69393;SHT31;56582;44.624;20.378;2023-10-13T03:06:58;19.18;74.39
69393;SHT31;56582;44.624;20.378;2023-10-13T03:09:25;19.10;74.20
69393;SHT31;56582;44.624;20.378;2023-10-13T03:11:51;18.95;74.51
69393;SHT31;56582;44.624;20.378;2023-10-13T03:14:21;18.88;74.03
69393;SHT31;56582;44.624;20.378;2023-10-13T03:17:14;18.94;74.98
69393;SHT31;56582;44.624;20.378;2023-10-13T03:19:46;19.10;74.97
69393;SHT31;56582;44.624;20.378;2023-10-13T03:22:15;19.26;74.23
69393;SHT31;56582;44.624;20.378;2023-10-13T03:24:42;19.44;74.14
69393;SHT31;56582;44.624;20.378;2023-10-13T03:27:16;19.41;74.36
69393;SHT31;56582;44.624;20.378;2023-10-13T03:29:42;19.36;73.64
69393;SHT31;56582;44.624;20.378;2023-10-13T03:32:13;19.36;73.55
69393;SHT31;56582;44.624;20.378;2023-10-13T03:34:42;19.36;73.36
69393;SHT31;56582;44.624;20.378;2023-10-13T03:37:26;19.49;73.14
69393;SHT31;56582;44.624;20.378;2023-10-13T03:42:52;19.46;74.56
69393;SHT31;56582;44.624;20.378;2023-10-13T03:45:35;19.46;75.90
69393;SHT31;56582;44.624;20.378;2023-10-13T03:50:38;19.51;76.47
69393;SHT31;56582;44.624;20.378;2023-10-13T03:53:14;19.45;75.65
69393;SHT31;56582;44.624;20.378;2023-10-13T03:55:41;19.39;75.52
69393;SHT31;56582;44.624;20.378;2023-10-13T03:58:14;19.39;74.93
69393;SHT31;56582;44.624;20.378;2023-10-13T04:00:39;19.46;78.54
69393;SHT31;56582;44.624;20.378;2023-10-13T04:03:08;19.55;79.29
69393;SHT31;56582;44.624;20.378;2023-10-13T04:05:35;19.53;79.08
69393;SHT31;56582;44.624;20.378;2023-10-13T04:08:12;19.48;78.91
69393;SHT31;56582;44.624;20.378;2023-10-13T04:10:53;19.35;78.92
69393;SHT31;56582;44.624;20.378;2023-10-13T04:13:20;19.32;78.94
69393;SHT31;56582;44.624;20.378;2023-10-13T04:16:04;19.25;79.15
69393;SHT31;56582;44.624;20.378;2023-10-13T04:18:51;18.68;77.09
69393;SHT31;56582;44.624;20.378;2023-10-13T04:21:20;18.29;77.03
69393;SHT31;56582;44.624;20.378;2023-10-13T04:24:04;17.97;78.76
69393;SHT31;56582;44.624;20.378;2023-10-13T04:26:45;17.68;78.86
69393;SHT31;56582;44.624;20.378;2023-10-13T04:29:29;17.51;79.69
69393;SHT31;56582;44.624;20.378;2023-10-13T04:32:16;17.23;80.05
69393;SHT31;56582;44.624;20.378;2023-10-13T04:35:00;17.00;79.25
69393;SHT31;56582;44.624;20.378;2023-10-13T04:37:38;16.83;80.78
69393;SHT31;56582;44.624;20.378;2023-10-13T04:40:20;16.83;80.77
69393;SHT31;56582;44.624;20.378;2023-10-13T04:42:50;16.64;80.81
69393;SHT31;56582;44.624;20.378;2023-10-13T04:45:21;16.64;81.27
69393;SHT31;56582;44.624;20.378;2023-10-13T04:47:57;16.38;80.95
69393;SHT31;56582;44.624;20.378;2023-10-13T04:50:24;16.13;81.77
69393;SHT31;56582;44.624;20.378;2023-10-13T04:53:00;16.09;81.29
69393;SHT31;56582;44.624;20.378;2023-10-13T04:55:38;16.10;80.88
69393;SHT31;56582;44.624;20.378;2023-10-13T04:58:13;16.09;82.88
69393;SHT31;56582;44.624;20.378;2023-10-13T05:01:00;15.93;81.48
69393;SHT31;56582;44.624;20.378;2023-10-13T05:03:44;15.75;83.42
69393;SHT31;56582;44.624;20.378;2023-10-13T05:06:28;15.79;82.43
69393;SHT31;56582;44.624;20.378;2023-10-13T05:09:10;15.82;82.97
69393;SHT31;56582;44.624;20.378;2023-10-13T05:11:54;15.90;83.36
69393;SHT31;56582;44.624;20.378;2023-10-13T05:14:38;15.99;82.87
69393;SHT31;56582;44.624;20.378;2023-10-13T05:17:22;16.00;82.70
69393;SHT31;56582;44.624;20.378;2023-10-13T05:20:07;15.89;82.50
69393;SHT31;56582;44.624;20.378;2023-10-13T05:22:51;15.75;82.30
69393;SHT31;56582;44.624;20.378;2023-10-13T05:25:36;15.83;83.31
69393;SHT31;56582;44.624;20.378;2023-10-13T05:28:20;15.94;82.76
69393;SHT31;56582;44.624;20.378;2023-10-13T05:31:23;15.90;81.18
69393;SHT31;56582;44.624;20.378;2023-10-13T05:34:07;15.76;82.69
69393;SHT31;56582;44.624;20.378;2023-10-13T05:36:51;15.92;83.74
69393;SHT31;56582;44.624;20.378;2023-10-13T05:39:35;15.89;82.69
69393;SHT31;56582;44.624;20.378;2023-10-13T05:42:19;16.04;83.03
69393;SHT31;56582;44.624;20.378;2023-10-13T05:45:03;16.06;82.13
69393;SHT31;56582;44.624;20.378;2023-10-13T05:47:47;16.02;82.49
69393;SHT31;56582;44.624;20.378;2023-10-13T05:50:16;15.94;82.54
69393;SHT31;56582;44.624;20.378;2023-10-13T05:52:48;16.02;82.23
69393;SHT31;56582;44.624;20.378;2023-10-13T05:55:27;15.89;81.38
69393;SHT31;56582;44.624;20.378;2023-10-13T05:58:12;16.07;82.11
69393;SHT31;56582;44.624;20.378;2023-10-13T06:00:56;16.23;82.32
69393;SHT31;56582;44.624;20.378;2023-10-13T06:03:39;16.38;81.46
69393;SHT31;56582;44.624;20.378;2023-10-13T06:06:24;16.52;81.94
69393;SHT31;56582;44.624;20.378;2023-10-13T06:09:07;16.60;81.24
69393;SHT31;56582;44.624;20.378;2023-10-13T06:11:51;16.73;80.57
69393;SHT31;56582;44.624;20.378;2023-10-13T06:14:35;16.67;79.98
69393;SHT31;56582;44.624;20.378;2023-10-13T06:17:19;16.75;80.33
69393;SHT31;56582;44.624;20.378;2023-10-13T06:20:04;16.86;80.86
69393;SHT31;56582;44.624;20.378;2023-10-13T06:22:49;16.92;80.78
69393;SHT31;56582;44.624;20.378;2023-10-13T06:25:33;16.93;79.87
69393;SHT31;56582;44.624;20.378;2023-10-13T06:28:17;17.03;80.35
69393;SHT31;56582;44.624;20.378;2023-10-13T06:31:02;17.16;80.39
69393;SHT31;56582;44.624;20.378;2023-10-13T06:33:34;17.20;80.05
69393;SHT31;56582;44.624;20.378;2023-10-13T06:36:02;17.10;79.91
69393;SHT31;56582;44.624;20.378;2023-10-13T06:38:29;17.19;80.02
69393;SHT31;56582;44.624;20.378;2023-10-13T06:41:10;17.31;80.04
69393;SHT31;56582;44.624;20.378;2023-10-13T06:43:45;17.37;79.73
69393;SHT31;56582;44.624;20.378;2023-10-13T06:46:10;17.49;79.56
69393;SHT31;56582;44.624;20.378;2023-10-13T06:48:40;17.44;78.82
69393;SHT31;56582;44.624;20.378;2023-10-13T06:51:06;17.51;79.33
69393;SHT31;56582;44.624;20.378;2023-10-13T06:53:58;17.57;79.47
69393;SHT31;56582;44.624;20.378;2023-10-13T06:56:24;17.64;78.99
69393;SHT31;56582;44.624;20.378;2023-10-13T06:58:56;17.71;78.93
69393;SHT31;56582;44.624;20.378;2023-10-13T07:01:27;17.78;79.19
69393;SHT31;56582;44.624;20.378;2023-10-13T07:03:53;17.68;79.69
69393;SHT31;56582;44.624;20.378;2023-10-13T07:06:20;17.79;79.42
69393;SHT31;56582;44.624;20.378;2023-10-13T07:08:46;17.87;78.34
69393;SHT31;56582;44.624;20.378;2023-10-13T07:11:18;18.02;78.07
69393;SHT31;56582;44.624;20.378;2023-10-13T07:13:59;18.16;77.08
69393;SHT31;56582;44.624;20.378;2023-10-13T07:16:24;18.22;76.99
69393;SHT31;56582;44.624;20.378;2023-10-13T07:18:51;18.28;77.51
69393;SHT31;56582;44.624;20.378;2023-10-13T07:21:20;18.46;76.28
69393;SHT31;56582;44.624;20.378;2023-10-13T07:23:56;18.50;76.24
69393;SHT31;56582;44.624;20.378;2023-10-13T07:26:35;18.50;77.11
69393;SHT31;56582;44.624;20.378;2023-10-13T07:29:08;18.64;77.44
69393;SHT31;56582;44.624;20.378;2023-10-13T07:31:34;18.60;76.45
69393;SHT31;56582;44.624;20.378;2023-10-13T07:33:59;18.67;77.04
69393;SHT31;56582;44.624;20.378;2023-10-13T07:36:35;18.73;76.18
69393;SHT31;56582;44.624;20.378;2023-10-13T07:39:05;18.83;76.92
69393;SHT31;56582;44.624;20.378;2023-10-13T07:41:48;18.95;75.57
69393;SHT31;56582;44.624;20.378;2023-10-13T07:44:18;19.04;75.53
69393;SHT31;56582;44.624;20.378;2023-10-13T07:46:45;19.05;76.02
69393;SHT31;56582;44.624;20.378;2023-10-13T07:49:14;19.19;76.03
69393;SHT31;56582;44.624;20.378;2023-10-13T07:51:40;19.31;76.58
69393;SHT31;56582;44.624;20.378;2023-10-13T07:54:16;19.38;74.99
69393;SHT31;56582;44.624;20.378;2023-10-13T07:56:48;19.36;74.61
69393;SHT31;56582;44.624;20.378;2023-10-13T07:59:14;19.35;74.37
69393;SHT31;56582;44.624;20.378;2023-10-13T08:01:47;19.51;75.00
69393;SHT31;56582;44.624;20.378;2023-10-13T08:04:12;19.61;74.71
69393;SHT31;56582;44.624;20.378;2023-10-13T08:06:40;19.84;75.36
69393;SHT31;56582;44.624;20.378;2023-10-13T08:09:07;20.01;74.05
69393;SHT31;56582;44.624;20.378;2023-10-13T08:11:52;20.21;73.08
69393;SHT31;56582;44.624;20.378;2023-10-13T08:14:19;20.31;72.77
69393;SHT31;56582;44.624;20.378;2023-10-13T08:16:49;20.32;70.77
69393;SHT31;56582;44.624;20.378;2023-10-13T08:19:25;20.28;72.31
69393;SHT31;56582;44.624;20.378;2023-10-13T08:21:58;20.42;71.66
69393;SHT31;56582;44.624;20.378;2023-10-13T08:24:28;20.25;71.56
69393;SHT31;56582;44.624;20.378;2023-10-13T08:27:02;20.34;72.46
69393;SHT31;56582;44.624;20.378;2023-10-13T08:29:44;20.14;71.56
69393;SHT31;56582;44.624;20.378;2023-10-13T08:32:24;20.32;71.87
69393;SHT31;56582;44.624;20.378;2023-10-13T08:34:57;20.51;71.60
69393;SHT31;56582;44.624;20.378;2023-10-13T08:37:24;20.56;71.27
69393;SHT31;56582;44.624;20.378;2023-10-13T08:39:51;20.51;71.82
69393;SHT31;56582;44.624;20.378;2023-10-13T08:45:15;20.56;71.39
69393;SHT31;56582;44.624;20.378;2023-10-13T08:47:50;20.78;71.98
69393;SHT31;56582;44.624;20.378;2023-10-13T08:50:52;20.82;71.06
69393;SHT31;56582;44.624;20.378;2023-10-13T08:56:09;20.90;71.85
69393;SHT31;56582;44.624;20.378;2023-10-13T08:58:59;21.14;71.70
69393;SHT31;56582;44.624;20.378;2023-10-13T09:01:33;21.39;71.20
69393;SHT31;56582;44.624;20.378;2023-10-13T09:04:14;21.46;71.11
69393;SHT31;56582;44.624;20.378;2023-10-13T09:07:08;21.37;69.96
69393;SHT31;56582;44.624;20.378;2023-10-13T09:14:40;21.75;70.21
69393;SHT31;56582;44.624;20.378;2023-10-13T09:17:19;21.54;69.62
69393;SHT31;56582;44.624;20.378;2023-10-13T09:22:26;21.74;69.48
69393;SHT31;56582;44.624;20.378;2023-10-13T09:25:01;21.91;69.91
69393;SHT31;56582;44.624;20.378;2023-10-13T09:27:29;22.09;69.85
69393;SHT31;56582;44.624;20.378;2023-10-13T09:30:01;22.02;68.61
69393;SHT31;56582;44.624;20.378;2023-10-13T09:33:02;22.13;68.79
69393;SHT31;56582;44.624;20.378;2023-10-13T09:35:31;22.35;69.27
69393;SHT31;56582;44.624;20.378;2023-10-13T09:38:02;22.45;68.18
69393;SHT31;56582;44.624;20.378;2023-10-13T09:40:28;22.60;68.42
69393;SHT31;56582;44.624;20.378;2023-10-13T09:43:00;22.74;67.63
69393;SHT31;56582;44.624;20.378;2023-10-13T09:45:32;22.15;67.77
69393;SHT31;56582;44.624;20.378;2023-10-13T09:48:37;22.53;68.20
69393;SHT31;56582;44.624;20.378;2023-10-13T09:51:12;22.68;68.41
69393;SHT31;56582;44.624;20.378;2023-10-13T09:53:39;22.64;67.11
69393;SHT31;56582;44.624;20.378;2023-10-13T09:56:14;22.64;67.42
69393;SHT31;56582;44.624;20.378;2023-10-13T09:58:58;22.47;67.48
69393;SHT31;56582;44.624;20.378;2023-10-13T10:01:28;22.64;66.58
69393;SHT31;56582;44.624;20.378;2023-10-13T10:04:09;22.70;66.18
69393;SHT31;56582;44.624;20.378;2023-10-13T10:06:38;22.87;66.18
69393;SHT31;56582;44.624;20.378;2023-10-13T10:09:11;22.83;66.43
69393;SHT31;56582;44.624;20.378;2023-10-13T10:17:13;23.25;66.24
69393;SHT31;56582;44.624;20.378;2023-10-13T10:19:49;23.32;66.22
69393;SHT31;56582;44.624;20.378;2023-10-13T10:22:27;23.51;65.21
69393;SHT31;56582;44.624;20.378;2023-10-13T10:25:08;23.35;64.85
69393;SHT31;56582;44.624;20.378;2023-10-13T10:27:56;23.43;64.87
69393;SHT31;56582;44.624;20.378;2023-10-13T10:30:29;23.58;64.51
69393;SHT31;56582;44.624;20.378;2023-10-13T10:32:58;23.65;66.53
69393;SHT31;56582;44.624;20.378;2023-10-13T10:35:32;23.65;64.46
69393;SHT31;56582;44.624;20.378;2023-10-13T10:38:12;23.72;64.29
69393;SHT31;56582;44.624;20.378;2023-10-13T10:43:29;24.03;63.92
69393;SHT31;56582;44.624;20.378;2023-10-13T10:46:29;23.94;63.93
69393;SHT31;56582;44.624;20.378;2023-10-13T10:48:57;23.83;63.92
69393;SHT31;56582;44.624;20.378;2023-10-13T10:51:27;23.94;64.02
69393;SHT31;56582;44.624;20.378;2023-10-13T10:54:00;23.97;63.05
69393;SHT31;56582;44.624;20.378;2023-10-13T10:56:37;24.13;63.79
69393;SHT31;56582;44.624;20.378;2023-10-13T10:59:06;24.17;62.82
69393;SHT31;56582;44.624;20.378;2023-10-13T11:01:50;24.06;63.66
69393;SHT31;56582;44.624;20.378;2023-10-13T11:04:19;23.99;63.76
69393;SHT31;56582;44.624;20.378;2023-10-13T11:06:49;24.11;63.07
69393;SHT31;56582;44.624;20.378;2023-10-13T11:11:53;24.31;61.54
69393;SHT31;56582;44.624;20.378;2023-10-13T11:14:27;24.31;61.96
69393;SHT31;56582;44.624;20.378;2023-10-13T11:16:55;24.37;62.13
69393;SHT31;56582;44.624;20.378;2023-10-13T11:19:35;24.52;61.48
69393;SHT31;56582;44.624;20.378;2023-10-13T11:22:15;24.16;61.67
69393;SHT31;56582;44.624;20.378;2023-10-13T11:25:03;24.11;62.43
69393;SHT31;56582;44.624;20.378;2023-10-13T11:27:39;24.38;62.80
69393;SHT31;56582;44.624;20.378;2023-10-13T11:30:14;24.47;61.36
69393;SHT31;56582;44.624;20.378;2023-10-13T11:32:45;24.37;61.52
69393;SHT31;56582;44.624;20.378;2023-10-13T11:35:12;24.51;60.33
69393;SHT31;56582;44.624;20.378;2023-10-13T11:37:47;24.69;57.85
69393;SHT31;56582;44.624;20.378;2023-10-13T11:40:37;24.78;57.86
69393;SHT31;56582;44.624;20.378;2023-10-13T11:43:12;24.80;58.65
69393;SHT31;56582;44.624;20.378;2023-10-13T11:45:41;24.73;58.65
69393;SHT31;56582;44.624;20.378;2023-10-13T11:48:25;24.88;59.00
69393;SHT31;56582;44.624;20.378;2023-10-13T11:51:02;25.02;60.27
69393;SHT31;56582;44.624;20.378;2023-10-13T11:53:35;24.98;58.75
69393;SHT31;56582;44.624;20.378;2023-10-13T11:56:04;24.92;57.90
69393;SHT31;56582;44.624;20.378;2023-10-13T11:58:40;24.68;58.28
69393;SHT31;56582;44.624;20.378;2023-10-13T12:01:06;24.61;57.40
69393;SHT31;56582;44.624;20.378;2023-10-13T12:03:45;24.79;58.94
69393;SHT31;56582;44.624;20.378;2023-10-13T12:06:31;24.92;58.63
69393;SHT31;56582;44.624;20.378;2023-10-13T12:09:07;25.03;58.53
69393;SHT31;56582;44.624;20.378;2023-10-13T12:11:41;25.05;59.11
69393;SHT31;56582;44.624;20.378;2023-10-13T12:14:13;25.03;59.39
69393;SHT31;56582;44.624;20.378;2023-10-13T12:16:55;25.06;58.14
69393;SHT31;56582;44.624;20.378;2023-10-13T12:19:23;25.09;59.24
69393;SHT31;56582;44.624;20.378;2023-10-13T12:21:58;25.24;59.31
69393;SHT31;56582;44.624;20.378;2023-10-13T12:24:29;25.31;59.53
69393;SHT31;56582;44.624;20.378;2023-10-13T12:27:01;25.20;59.40
69393;SHT31;56582;44.624;20.378;2023-10-13T12:29:26;25.23;58.78
69393;SHT31;56582;44.624;20.378;2023-10-13T12:31:56;25.15;58.36
69393;SHT31;56582;44.624;20.378;2023-10-13T12:34:38;25.09;59.57
69393;SHT31;56582;44.624;20.378;2023-10-13T12:37:22;25.06;58.96
69393;SHT31;56582;44.624;20.378;2023-10-13T12:40:13;25.12;57.87
69393;SHT31;56582;44.624;20.378;2023-10-13T12:42:58;24.89;58.92
69393;SHT31;56582;44.624;20.378;2023-10-13T12:45:43;25.19;61.03
69393;SHT31;56582;44.624;20.378;2023-10-13T12:48:40;25.20;59.26
69393;SHT31;56582;44.624;20.378;2023-10-13T12:51:29;25.19;59.20
69393;SHT31;56582;44.624;20.378;2023-10-13T12:53:57;25.27;59.18
69393;SHT31;56582;44.624;20.378;2023-10-13T12:56:39;25.20;58.59
69393;SHT31;56582;44.624;20.378;2023-10-13T12:59:08;25.28;59.63
69393;SHT31;56582;44.624;20.378;2023-10-13T13:01:35;25.38;60.64
69393;SHT31;56582;44.624;20.378;2023-10-13T13:04:00;25.46;59.28
69393;SHT31;56582;44.624;20.378;2023-10-13T13:06:29;25.38;60.82
69393;SHT31;56582;44.624;20.378;2023-10-13T13:08:59;25.50;59.00
69393;SHT31;56582;44.624;20.378;2023-10-13T13:11:25;25.34;61.07
69393;SHT31;56582;44.624;20.378;2023-10-13T13:13:51;25.38;60.37
69393;SHT31;56582;44.624;20.378;2023-10-13T13:16:17;25.36;59.13
69393;SHT31;56582;44.624;20.378;2023-10-13T13:18:45;25.44;60.02
69393;SHT31;56582;44.624;20.378;2023-10-13T13:21:10;25.40;59.55
69393;SHT31;56582;44.624;20.378;2023-10-13T13:23:38;25.41;60.09
69393;SHT31;56582;44.624;20.378;2023-10-13T13:26:05;25.40;60.81
69393;SHT31;56582;44.624;20.378;2023-10-13T13:28:41;25.54;59.48
69393;SHT31;56582;44.624;20.378;2023-10-13T13:31:08;25.61;58.48
69393;SHT31;56582;44.624;20.378;2023-10-13T13:33:34;25.51;58.77
69393;SHT31;56582;44.624;20.378;2023-10-13T13:36:04;25.53;59.70
69393;SHT31;56582;44.624;20.378;2023-10-13T13:38:30;25.54;58.86
69393;SHT31;56582;44.624;20.378;2023-10-13T13:40:57;25.54;57.56
69393;SHT31;56582;44.624;20.378;2023-10-13T13:43:24;25.47;56.93
69393;SHT31;56582;44.624;20.378;2023-10-13T13:46:23;25.53;57.75
69393;SHT31;56582;44.624;20.378;2023-10-13T13:48:59;25.56;57.42
69393;SHT31;56582;44.624;20.378;2023-10-13T13:51:29;25.46;58.46
69393;SHT31;56582;44.624;20.378;2023-10-13T13:53:56;25.41;59.33
69393;SHT31;56582;44.624;20.378;2023-10-13T13:56:22;25.43;60.07
69393;SHT31;56582;44.624;20.378;2023-10-13T13:58:51;25.43;59.78
69393;SHT31;56582;44.624;20.378;2023-10-13T14:01:18;25.46;59.30
69393;SHT31;56582;44.624;20.378;2023-10-13T14:03:45;25.23;59.22
69393;SHT31;56582;44.624;20.378;2023-10-13T14:06:29;25.16;59.85
69393;SHT31;56582;44.624;20.378;2023-10-13T14:08:59;25.22;59.89
69393;SHT31;56582;44.624;20.378;2023-10-13T14:11:29;25.31;59.57
69393;SHT31;56582;44.624;20.378;2023-10-13T14:16:54;25.27;60.74
69393;SHT31;56582;44.624;20.378;2023-10-13T14:19:27;25.15;59.75
69393;SHT31;56582;44.624;20.378;2023-10-13T14:21:57;25.10;61.59
69393;SHT31;56582;44.624;20.378;2023-10-13T14:24:23;25.12;60.55
69393;SHT31;56582;44.624;20.378;2023-10-13T14:26:59;25.15;61.04
69393;SHT31;56582;44.624;20.378;2023-10-13T14:29:35;25.17;61.95
69393;SHT31;56582;44.624;20.378;2023-10-13T14:32:14;25.06;62.36
69393;SHT31;56582;44.624;20.378;2023-10-13T14:34:44;24.95;62.23
69393;SHT31;56582;44.624;20.378;2023-10-13T14:37:10;24.95;62.19
69393;SHT31;56582;44.624;20.378;2023-10-13T14:39:41;24.93;63.69
69393;SHT31;56582;44.624;20.378;2023-10-13T14:42:06;24.71;63.10
69393;SHT31;56582;44.624;20.378;2023-10-13T14:44:33;24.57;63.41
69393;SHT31;56582;44.624;20.378;2023-10-13T14:46:58;24.55;63.92
69393;SHT31;56582;44.624;20.378;2023-10-13T14:49:24;24.54;64.70
69393;SHT31;56582;44.624;20.378;2023-10-13T14:51:50;24.38;64.43
69393;SHT31;56582;44.624;20.378;2023-10-13T14:54:16;24.35;65.71
69393;SHT31;56582;44.624;20.378;2023-10-13T14:56:41;24.34;64.90
69393;SHT31;56582;44.624;20.378;2023-10-13T14:59:10;24.31;66.62
69393;SHT31;56582;44.624;20.378;2023-10-13T15:01:43;24.25;65.67
69393;SHT31;56582;44.624;20.378;2023-10-13T15:04:08;24.18;66.57
69393;SHT31;56582;44.624;20.378;2023-10-13T15:06:34;24.18;65.62
69393;SHT31;56582;44.624;20.378;2023-10-13T15:09:00;24.13;66.94
69393;SHT31;56582;44.624;20.378;2023-10-13T15:11:27;23.99;67.08
69393;SHT31;56582;44.624;20.378;2023-10-13T15:14:01;23.73;67.65
69393;SHT31;56582;44.624;20.378;2023-10-13T15:16:27;23.69;68.07
69393;SHT31;56582;44.624;20.378;2023-10-13T15:18:53;23.51;68.53
69393;SHT31;56582;44.624;20.378;2023-10-13T15:21:28;23.43;67.23
69393;SHT31;56582;44.624;20.378;2023-10-13T15:24:06;23.21;68.28
69393;SHT31;56582;44.624;20.378;2023-10-13T15:26:47;22.95;68.90
69393;SHT31;56582;44.624;20.378;2023-10-13T15:29:19;22.95;69.52
69393;SHT31;56582;44.624;20.378;2023-10-13T15:31:51;22.90;69.54
69393;SHT31;56582;44.624;20.378;2023-10-13T15:34:26;22.93;69.25
69393;SHT31;56582;44.624;20.378;2023-10-13T15:36:53;22.88;68.88
69393;SHT31;56582;44.624;20.378;2023-10-13T15:39:20;22.77;68.64
69393;SHT31;56582;44.624;20.378;2023-10-13T15:41:50;22.70;69.12
69393;SHT31;56582;44.624;20.378;2023-10-13T15:44:19;22.39;68.61
69393;SHT31;56582;44.624;20.378;2023-10-13T15:46:46;22.37;70.58
69393;SHT31;56582;44.624;20.378;2023-10-13T15:49:15;22.35;69.49
69393;SHT31;56582;44.624;20.378;2023-10-13T15:51:40;22.09;70.33
69393;SHT31;56582;44.624;20.378;2023-10-13T15:54:07;22.13;70.15
69393;SHT31;56582;44.624;20.378;2023-10-13T15:56:41;22.12;69.64
69393;SHT31;56582;44.624;20.378;2023-10-13T15:59:07;21.98;69.79
69393;SHT31;56582;44.624;20.378;2023-10-13T16:01:32;21.95;69.65
69393;SHT31;56582;44.624;20.378;2023-10-13T16:03:59;21.74;68.92
69393;SHT31;56582;44.624;20.378;2023-10-13T16:06:25;21.74;70.00
69393;SHT31;56582;44.624;20.378;2023-10-13T16:08:52;21.74;69.51
69393;SHT31;56582;44.624;20.378;2023-10-13T16:11:18;21.68;69.99
69393;SHT31;56582;44.624;20.378;2023-10-13T16:13:44;21.71;70.19
69393;SHT31;56582;44.624;20.378;2023-10-13T16:16:23;21.60;69.25
69393;SHT31;56582;44.624;20.378;2023-10-13T16:18:50;21.43;69.72
69393;SHT31;56582;44.624;20.378;2023-10-13T16:21:16;21.43;70.96
69393;SHT31;56582;44.624;20.378;2023-10-13T16:23:42;21.29;70.63
69393;SHT31;56582;44.624;20.378;2023-10-13T16:26:11;21.19;70.21
69393;SHT31;56582;44.624;20.378;2023-10-13T16:28:36;21.29;70.99